Time;durP1;ratioP1;P1;durP2;ratioP2;P2;SDS_P1;SDS_P2;PMS_P1;PMS_P2;Temp;Humidity;BMP_temperature;BMP_pressure;BME280_temperature;BME280_humidity;BME280_pressure;Samples;Min_cycle;Max_cycle;Signal;HPM_P1;HPM_P2
2021/08/11 00:04:58;;;;;;;46.53;43.50;;;;;;;16.59;100.00;101817.32;1971997;73;31046;-79
2021/08/11 00:10:22;;;;;;;46.37;43.17;;;;;;;16.67;100.00;101813.83;1972021;73;31484;-78
2021/08/11 00:15:47;;;;;;;46.10;42.90;;;;;;;16.36;100.00;101826.84;1972024;73;33467;-72
2021/08/11 00:21:11;;;;;;;44.70;41.60;;;;;;;16.45;100.00;101820.00;1967962;71;33106;-72
2021/08/11 00:26:36;;;;;;;47.37;44.07;;;;;;;16.20;100.00;101821.17;1971839;72;33008;-79
2021/08/11 00:32:00;;;;;;;46.53;43.33;;;;;;;16.21;100.00;101811.63;1971918;73;32920;-79
2021/08/11 00:37:25;;;;;;;45.03;41.93;;;;;;;16.10;100.00;101817.08;1972062;73;32905;-72
2021/08/11 00:42:50;;;;;;;44.37;41.27;;;;;;;16.12;100.00;101816.79;1971918;73;30979;-78
2021/08/11 00:48:14;;;;;;;46.33;43.13;;;;;;;15.77;100.00;101811.02;1971908;73;32899;-72
2021/08/11 00:53:42;;;;;;;45.47;42.47;;;;;;;15.99;100.00;101824.52;1971890;72;30962;-79
2021/08/11 00:59:30;;;;;;;44.57;41.63;;;;;;;15.84;100.00;101816.53;2016122;71;33373;-72
2021/08/11 01:04:56;;;;;;;46.97;43.77;;;;;;;15.88;100.00;101816.20;1972020;73;32904;-72
2021/08/11 01:10:23;;;;;;;43.67;40.57;;;;;;;15.83;100.00;101818.25;1972060;73;33410;-79
2021/08/11 01:15:48;;;;;;;43.23;40.37;;;;;;;15.75;100.00;101814.11;1972043;73;34154;-72
2021/08/11 01:21:16;;;;;;;45.70;42.80;;;;;;;15.63;100.00;101815.64;1962394;73;32982;-72
2021/08/11 01:26:59;;;;;;;43.63;40.73;;;;;;;15.77;100.00;101813.83;1972017;73;32983;-79
2021/08/11 01:32:30;;;;;;;45.53;42.40;;;;;;;15.52;100.00;101814.09;1971993;73;33457;-72
2021/08/11 01:37:59;;;;;;;41.87;39.17;;;;;;;15.62;100.00;101813.97;1972126;73;33008;-79
2021/08/11 01:43:28;;;;;;;45.03;42.13;;;;;;;15.54;100.00;101813.21;1971923;73;32939;-79
2021/08/11 01:48:56;;;;;;;44.90;42.00;;;;;;;15.45;100.00;101814.38;1972030;73;32997;-79
2021/08/11 01:54:23;;;;;;;43.83;40.93;;;;;;;15.28;100.00;101816.78;1971820;73;32975;-79
2021/08/11 01:59:49;;;;;;;43.60;40.70;;;;;;;15.36;100.00;101807.19;1972109;73;33428;-71
2021/08/11 02:05:15;;;;;;;44.03;41.00;;;;;;;15.43;100.00;101811.06;1972073;73;33444;-72
2021/08/11 02:10:42;;;;;;;42.37;39.67;;;;;;;15.42;100.00;101817.22;1971987;73;33457;-72
2021/08/11 02:16:07;;;;;;;42.57;39.70;;;;;;;15.29;100.00;101801.66;1971993;73;33470;-72
2021/08/11 02:21:31;;;;;;;44.47;41.53;;;;;;;15.21;100.00;101802.30;1972021;73;33553;-78
2021/08/11 02:27:02;;;;;;;44.07;41.23;;;;;;;15.01;100.00;101805.55;1972095;73;33496;-79
2021/08/11 02:32:34;;;;;;;44.07;41.17;;;;;;;14.91;100.00;101802.82;1971838;73;33007;-71
2021/08/11 02:35:08;;;;;;;43.93;41.00;;;;;;;15.00;100.00;101811.42;1934717;74;26320;-72
2021/08/11 02:37:40;;;;;;;43.57;40.77;;;;;;;14.96;100.00;101809.78;1934730;74;26239;-79
2021/08/11 02:43:13;;;;;;;44.87;41.87;;;;;;;14.99;100.00;101810.59;1971812;73;32987;-79
2021/08/11 02:48:39;;;;;;;45.30;42.30;;;;;;;14.95;100.00;101824.05;1971914;73;32982;-79
2021/08/11 02:54:09;;;;;;;43.23;40.33;;;;;;;14.88;100.00;101819.36;1971850;73;32914;-72
2021/08/11 02:59:35;;;;;;;42.60;39.80;;;;;;;14.70;100.00;101822.27;1972196;73;33424;-79
2021/08/11 03:05:01;;;;;;;43.90;40.87;;;;;;;14.70;100.00;101814.44;1972232;73;33371;-72
2021/08/11 03:10:27;;;;;;;44.20;41.20;;;;;;;14.90;100.00;101817.92;1972015;73;32914;-71
2021/08/11 03:15:54;;;;;;;44.93;41.93;;;;;;;14.79;100.00;101820.53;1972013;73;33480;-78
2021/08/11 03:21:20;;;;;;;43.87;40.97;;;;;;;14.74;100.00;101820.56;1967413;71;33635;-72
2021/08/11 03:26:44;;;;;;;43.23;40.37;;;;;;;14.71;100.00;101820.31;1971856;73;33008;-78
2021/08/11 03:32:09;;;;;;;43.20;40.40;;;;;;;14.68;100.00;101825.90;1972044;73;33423;-78
2021/08/11 03:37:34;;;;;;;45.07;41.97;;;;;;;14.73;100.00;101825.03;1971946;73;32893;-72
2021/08/11 03:42:58;;;;;;;43.67;40.77;;;;;;;14.72;100.00;101821.98;1972028;73;33507;-71
2021/08/11 03:48:23;;;;;;;44.53;41.63;;;;;;;14.55;100.00;101836.32;1971954;73;33422;-72
2021/08/11 03:53:47;;;;;;;45.83;42.80;;;;;;;14.56;100.00;101841.64;1972015;73;33405;-72
2021/08/11 03:59:12;;;;;;;42.67;39.57;;;;;;;14.44;100.00;101846.73;1971869;73;33033;-71
2021/08/11 04:04:37;;;;;;;41.63;38.83;;;;;;;14.64;100.00;101838.80;1971816;73;32904;-78
2021/08/11 04:10:02;;;;;;;42.23;39.37;;;;;;;14.67;100.00;101841.03;1972038;73;33563;-72
2021/08/11 04:15:26;;;;;;;44.37;41.13;;;;;;;14.64;100.00;101845.78;1972029;73;33412;-79
2021/08/11 04:20:50;;;;;;;44.23;41.23;;;;;;;14.74;100.00;101842.94;1966798;72;32924;-72
2021/08/11 04:26:15;;;;;;;44.80;41.73;;;;;;;14.63;100.00;101856.72;1971854;73;32993;-79
2021/08/11 04:31:39;;;;;;;44.53;41.53;;;;;;;14.68;100.00;101839.88;1971832;73;33084;-72
2021/08/11 04:37:05;;;;;;;44.03;41.07;;;;;;;14.52;100.00;101844.73;1972029;73;33496;-72
2021/08/11 04:42:30;;;;;;;43.13;39.83;;;;;;;14.58;100.00;101845.00;1971857;73;32925;-78
2021/08/11 04:47:55;;;;;;;42.40;39.50;;;;;;;14.43;100.00;101859.03;1971806;73;33001;-79
2021/08/11 04:53:19;;;;;;;43.17;40.17;;;;;;;14.61;100.00;101846.92;1971988;73;32925;-79
2021/08/11 04:58:43;;;;;;;43.20;40.20;;;;;;;14.57;100.00;101855.06;1972091;73;33422;-79
2021/08/11 05:04:09;;;;;;;44.27;41.23;;;;;;;14.29;100.00;101871.10;1971945;73;32951;-79
2021/08/11 05:09:35;;;;;;;44.80;41.70;;;;;;;14.38;100.00;101868.00;1971925;73;32918;-79
2021/08/11 05:15:03;;;;;;;44.67;41.83;;;;;;;14.44;100.00;101869.10;1972258;73;33438;-72
2021/08/11 05:20:33;;;;;;;45.97;42.90;;;;;;;14.41;100.00;101877.23;1970382;73;33005;-79
2021/08/11 05:25:58;;;;;;;44.70;41.60;;;;;;;14.51;100.00;101868.22;1971922;73;32978;-79
2021/08/11 05:31:22;;;;;;;45.13;41.93;;;;;;;14.56;100.00;101883.58;1972108;73;33428;-79
2021/08/11 05:36:47;;;;;;;43.87;40.97;;;;;;;14.73;100.00;101873.98;1972142;73;33397;-72
2021/08/11 05:42:11;;;;;;;44.70;41.67;;;;;;;14.62;100.00;101874.61;1972109;73;33466;-72
2021/08/11 05:47:36;;;;;;;47.33;43.93;;;;;;;14.73;100.00;101876.78;1972252;73;33466;-79
2021/08/11 05:53:05;;;;;;;48.03;44.77;;;;;;;14.73;100.00;101889.36;1971993;73;33391;-76
2021/08/11 05:58:30;;;;;;;45.97;42.67;;;;;;;14.85;100.00;101896.28;1972008;73;33377;-71
2021/08/11 06:03:56;;;;;;;47.20;44.00;;;;;;;14.97;100.00;101893.16;1971845;73;32982;-79
2021/08/11 06:09:21;;;;;;;47.47;44.07;;;;;;;14.92;100.00;101895.98;1971917;73;33053;-79
2021/08/11 06:14:45;;;;;;;44.83;41.77;;;;;;;14.97;100.00;101886.16;1972066;73;33385;-79
2021/08/11 06:20:13;;;;;;;45.80;42.53;;;;;;;15.11;100.00;101890.53;1971907;73;33078;-78
2021/08/11 06:25:37;;;;;;;45.07;41.87;;;;;;;15.17;100.00;101893.02;1972187;73;33078;-72
2021/08/11 06:31:01;;;;;;;44.87;41.77;;;;;;;15.34;100.00;101885.05;1971934;73;33007;-72
2021/08/11 06:36:26;;;;;;;44.93;41.73;;;;;;;15.30;100.00;101892.92;1971936;72;33052;-72
2021/08/11 06:41:50;;;;;;;45.97;42.87;;;;;;;15.34;100.00;101896.81;1971919;73;32913;-79
2021/08/11 06:47:15;;;;;;;44.73;41.60;;;;;;;15.45;100.00;101897.83;1972045;73;32999;-72
2021/08/11 06:52:40;;;;;;;45.43;42.33;;;;;;;15.55;100.00;101900.30;1971993;73;32918;-72
2021/08/11 06:58:05;;;;;;;47.50;44.30;;;;;;;15.35;100.00;101906.33;1971869;73;33102;-79
2021/08/11 07:03:31;;;;;;;48.23;44.83;;;;;;;15.41;100.00;101900.10;1971901;73;33189;-79
2021/08/11 07:08:55;;;;;;;47.07;43.60;;;;;;;15.54;100.00;101900.03;1971943;73;33001;-79
2021/08/11 07:14:20;;;;;;;47.60;44.37;;;;;;;15.83;100.00;101905.92;1971881;73;32946;-72
2021/08/11 07:19:44;;;;;;;48.53;45.07;;;;;;;15.90;100.00;101906.43;1971926;73;33049;-78
2021/08/11 07:25:11;;;;;;;48.93;45.53;;;;;;;16.02;100.00;101909.39;1972304;73;33441;-72
2021/08/11 07:30:36;;;;;;;47.43;44.13;;;;;;;16.19;100.00;101909.20;1972128;73;32997;-79
2021/08/11 07:36:00;;;;;;;47.00;43.67;;;;;;;16.33;100.00;101908.77;1971937;73;33008;-71
2021/08/11 07:41:25;;;;;;;46.77;43.57;;;;;;;16.47;100.00;101908.05;1972249;73;33408;-79
2021/08/11 07:46:49;;;;;;;45.57;42.27;;;;;;;16.84;100.00;101916.00;1972121;73;32996;-77
2021/08/11 07:52:14;;;;;;;44.63;41.73;;;;;;;17.42;100.00;101907.83;1971893;73;33047;-79
2021/08/11 07:57:39;;;;;;;42.03;39.33;;;;;;;17.64;100.00;101899.62;1971905;73;31005;-72
2021/08/11 08:03:06;;;;;;;40.67;38.17;;;;;;;17.86;100.00;101900.37;1971857;73;31461;-78
2021/08/11 08:08:32;;;;;;;41.33;38.77;;;;;;;17.96;100.00;101894.57;1972040;73;30963;-78
2021/08/11 08:13:57;;;;;;;42.73;40.03;;;;;;;18.42;100.00;101889.71;1972072;73;31562;-78
2021/08/11 08:19:21;;;;;;;37.57;35.27;;;;;;;18.71;100.00;101887.16;1972002;72;33055;-72
2021/08/11 08:24:46;;;;;;;37.90;35.67;;;;;;;19.00;100.00;101877.19;1972079;73;31509;-79
2021/08/11 08:30:13;;;;;;;37.30;35.20;;;;;;;19.27;100.00;101872.05;1972171;72;31044;-72
2021/08/11 08:35:37;;;;;;;35.77;33.87;;;;;;;19.48;100.00;101859.72;1972005;72;30983;-72
2021/08/11 08:41:03;;;;;;;36.20;34.30;;;;;;;19.57;100.00;101856.96;1972060;73;30909;-72
2021/08/11 08:46:28;;;;;;;31.87;30.27;;;;;;;19.77;100.00;101867.69;1972071;73;30936;-72
2021/08/11 08:51:54;;;;;;;33.00;31.30;;;;;;;20.09;100.00;101869.38;1972007;73;30914;-79
2021/08/11 08:57:20;;;;;;;33.17;31.27;;;;;;;20.09;100.00;101874.44;1972025;73;30958;-70
2021/08/11 09:02:48;;;;;;;35.10;33.30;;;;;;;20.24;100.00;101867.52;1971944;72;30960;-70
2021/08/11 09:08:13;;;;;;;35.13;33.33;;;;;;;20.32;100.00;101854.88;1972034;73;30920;-79
2021/08/11 09:13:37;;;;;;;31.93;30.37;;;;;;;20.52;100.00;101850.64;1971969;73;31034;-72
2021/08/11 09:19:03;;;;;;;32.07;30.37;;;;;;;20.44;100.00;101846.65;1972191;73;31465;-77
2021/08/11 09:24:27;;;;;;;42.63;40.53;;;;;;;20.36;100.00;101851.69;1972123;73;33472;-78
2021/08/11 09:30:08;;;;;;;37.60;35.50;;;;;;;20.59;100.00;101844.50;1971954;73;31042;-72
2021/08/11 09:35:47;;;;;;;35.43;33.73;;;;;;;20.58;100.00;101840.05;1971907;73;30991;-77
2021/08/11 09:41:12;;;;;;;36.27;34.37;;;;;;;20.90;100.00;101840.41;1971966;73;31107;-72
2021/08/11 09:46:38;;;;;;;33.27;31.47;;;;;;;20.97;100.00;101832.01;1972181;73;31517;-72
2021/08/11 09:52:10;;;;;;;29.93;28.53;;;;;;;21.07;100.00;101831.69;1972087;72;30937;-79
2021/08/11 09:57:35;;;;;;;31.10;29.50;;;;;;;21.24;100.00;101826.06;1972190;73;33456;-72
2021/08/11 10:03:05;;;;;;;27.50;26.10;;;;;;;21.38;100.00;101830.13;1972165;73;33477;-72
2021/08/11 10:08:35;;;;;;;31.27;29.67;;;;;;;21.36;100.00;101833.28;1972175;73;30954;-72
2021/08/11 10:13:59;;;;;;;27.77;26.40;;;;;;;21.38;100.00;101836.62;1972144;73;31501;-78
2021/08/11 10:19:27;;;;;;;28.27;26.87;;;;;;;21.69;100.00;101830.13;1971823;73;31018;-72
2021/08/11 10:24:54;;;;;;;28.55;27.15;;;;;;;21.72;100.00;101836.55;1972279;73;31024;-77
2021/08/11 10:30:19;;;;;;;26.70;25.40;;;;;;;21.59;100.00;101829.09;1972150;73;31533;-79
2021/08/11 10:35:47;;;;;;;27.77;26.47;;;;;;;21.79;100.00;101828.38;1972253;73;30956;-79
2021/08/11 10:41:13;;;;;;;28.43;26.93;;;;;;;21.94;100.00;101825.63;1972061;73;31068;-73
2021/08/11 10:46:41;;;;;;;22.95;21.95;;;;;;;22.22;100.00;101830.23;1972138;73;30993;-78
2021/08/11 10:52:17;;;;;;;25.93;24.73;;;;;;;22.02;100.00;101825.34;1971982;73;31034;-78
2021/08/11 10:57:49;;;;;;;26.17;24.97;;;;;;;21.87;100.00;101830.92;1972005;73;30980;-71
2021/08/11 11:03:54;;;;;;;26.85;25.55;;;;;;;22.16;100.00;101823.12;1972017;73;30959;-72
2021/08/11 11:09:20;;;;;;;22.83;21.73;;;;;;;22.27;100.00;101805.98;1972276;73;31045;-71
2021/08/11 11:14:49;;;;;;;23.60;22.40;;;;;;;22.29;100.00;101814.98;1971974;73;31097;-72
2021/08/11 11:20:22;;;;;;;24.20;22.98;;;;;;;22.43;100.00;101812.71;1972013;73;30971;-77
2021/08/11 11:26:05;;;;;;;35.03;33.35;;;;;;;22.25;100.00;101811.14;1972117;73;31058;-72
2021/08/11 11:31:56;;;;;;;24.98;23.67;;;;;;;22.28;100.00;101801.98;1972095;73;30971;-71
2021/08/11 11:37:27;;;;;;;24.40;23.07;;;;;;;22.23;100.00;101807.84;1972093;72;31497;-72
2021/08/11 11:43:24;;;;;;;24.35;23.25;;;;;;;22.04;100.00;101807.41;1972150;73;31693;-71
2021/08/11 11:49:17;;;;;;;22.87;21.82;;;;;;;22.19;100.00;101802.62;1971983;72;31063;-79
2021/08/11 11:54:46;;;;;;;21.93;20.93;;;;;;;22.50;100.00;101797.45;1972061;73;31110;-77
2021/08/11 12:03:00;;;;;;;22.80;21.70;;;;;;;22.19;100.00;101796.37;2061364;69;30651;-72
2021/08/11 12:05:44;;;;;;;19.83;18.93;;;;;;;22.28;100.00;101794.08;2030744;71;24175;-72
2021/08/11 12:08:16;;;;;;;21.80;20.80;;;;;;;22.50;100.00;101798.86;2030766;70;24116;-79
2021/08/11 12:10:47;;;;;;;19.45;18.55;;;;;;;22.41;100.00;101792.42;2030710;71;24164;-69
2021/08/11 12:13:18;;;;;;;21.42;20.32;;;;;;;22.46;100.00;101785.12;2030648;70;24555;-77
2021/08/11 12:15:54;;;;;;;19.23;18.25;;;;;;;22.56;100.00;101791.81;2030814;71;24085;-72
2021/08/11 12:18:26;;;;;;;19.17;18.27;;;;;;;22.64;100.00;101785.25;2030720;71;24113;-72
2021/08/11 12:20:58;;;;;;;19.17;18.27;;;;;;;22.70;100.00;101778.84;2022947;71;24620;-72
2021/08/11 12:23:30;;;;;;;20.55;19.62;;;;;;;22.63;100.00;101780.75;1993749;72;24150;-79
2021/08/11 12:26:03;;;;;;;19.90;18.92;;;;;;;22.59;100.00;101776.15;1993787;72;24297;-79
2021/08/11 12:28:36;;;;;;;18.90;17.98;;;;;;;22.48;100.00;101779.95;1993797;72;24140;-72
2021/08/11 12:31:09;;;;;;;21.07;19.87;;;;;;;22.66;100.00;101785.75;1993853;72;24147;-78
2021/08/11 12:33:42;;;;;;;19.17;18.37;;;;;;;22.54;100.00;101782.01;1993788;72;24183;-71
2021/08/11 12:36:18;;;;;;;20.73;19.73;;;;;;;22.33;100.00;101779.16;1993946;72;24201;-71
2021/08/11 12:38:59;;;;;;;21.42;20.32;;;;;;;22.37;100.00;101782.13;1993629;72;24715;-78
2021/08/11 12:41:30;;;;;;;21.97;20.87;;;;;;;22.41;100.00;101783.09;1993712;72;24251;-71
2021/08/11 12:44:03;;;;;;;20.55;19.62;;;;;;;22.71;100.00;101778.25;1993867;72;24143;-72
2021/08/11 12:46:47;;;;;;;21.33;20.23;;;;;;;22.81;100.00;101771.56;1991926;72;24139;-71
2021/08/11 12:49:21;;;;;;;18.00;17.20;;;;;;;22.91;100.00;101778.83;1993758;72;24170;-71
2021/08/11 12:55:09;;;;;;;19.70;18.80;;;;;;;22.82;100.00;101768.16;1972088;73;31061;-76
2021/08/11 13:00:58;;;;;;;20.17;19.00;;;;;;;22.55;100.00;101769.48;1971917;73;31003;-76
2021/08/11 13:06:32;;;;;;;18.25;17.45;;;;;;;22.87;100.00;101759.45;1972160;73;31556;-79
2021/08/11 13:12:01;;;;;;;19.50;18.60;;;;;;;22.65;100.00;101753.52;1972015;73;31074;-78
2021/08/11 13:18:26;;;;;;;20.00;19.00;;;;;;;22.90;100.00;101741.16;2016316;71;31424;-71
2021/08/11 13:24:10;;;;;;;19.30;18.40;;;;;;;22.71;100.00;101755.01;2016165;71;30899;-77
2021/08/11 13:29:35;;;;;;;18.55;17.45;;;;;;;22.92;100.00;101750.16;1972041;73;30981;-70
2021/08/11 13:35:00;;;;;;;20.62;19.62;;;;;;;22.80;100.00;101752.94;1971840;73;30972;-77
2021/08/11 13:40:28;;;;;;;19.00;17.95;;;;;;;22.99;100.00;101743.33;1972218;73;31027;-78
2021/08/11 13:45:59;;;;;;;18.40;17.60;;;;;;;22.82;100.00;101751.98;1971994;73;30988;-72
2021/08/11 13:51:30;;;;;;;20.17;19.27;;;;;;;22.82;100.00;101745.48;1971893;73;31120;-76
2021/08/11 13:56:55;;;;;;;20.15;19.05;;;;;;;22.79;100.00;101734.27;1971872;73;31070;-70
2021/08/11 14:02:19;;;;;;;21.77;20.88;;;;;;;22.87;100.00;101736.78;1971938;73;30977;-76
2021/08/11 14:07:50;;;;;;;27.02;25.72;;;;;;;22.96;100.00;101731.28;1971946;72;30968;-70
2021/08/11 14:13:36;;;;;;;17.95;17.10;;;;;;;23.12;100.00;101740.79;2016054;71;30887;-71
2021/08/11 14:19:03;;;;;;;19.00;17.60;;;;;;;23.02;100.00;101739.80;1938505;73;31152;-76
2021/08/11 14:24:27;;;;;;;17.85;16.87;;;;;;;23.01;100.00;101741.00;1971907;73;31050;-78
2021/08/11 14:29:57;;;;;;;18.42;17.42;;;;;;;23.12;100.00;101739.95;1972159;73;31474;-79
2021/08/11 14:35:23;;;;;;;18.35;17.35;;;;;;;23.01;100.00;101732.49;1971974;73;30998;-70
2021/08/11 14:40:48;;;;;;;18.73;17.82;;;;;;;23.13;100.00;101725.45;1972026;73;30990;-76
2021/08/11 14:46:12;;;;;;;16.95;16.12;;;;;;;23.12;100.00;101718.11;1972029;73;30986;-75
2021/08/11 14:51:37;;;;;;;16.80;15.85;;;;;;;23.39;100.00;101722.33;1972142;73;31003;-74
2021/08/11 14:57:01;;;;;;;16.02;15.32;;;;;;;23.54;100.00;101722.26;1972181;73;31608;-69
2021/08/11 15:02:26;;;;;;;16.70;15.90;;;;;;;23.20;100.00;101719.19;1972037;73;30972;-72
2021/08/11 15:07:50;;;;;;;17.40;16.15;;;;;;;23.24;100.00;101717.90;1971851;73;30992;-72
2021/08/11 15:13:15;;;;;;;15.58;14.78;;;;;;;23.50;100.00;101712.21;1972050;73;31599;-70
2021/08/11 15:18:39;;;;;;;15.83;14.93;;;;;;;23.33;100.00;101723.72;1971962;73;31566;-72
2021/08/11 15:24:04;;;;;;;15.45;14.70;;;;;;;23.16;100.00;101715.41;1971856;73;31089;-77
2021/08/11 15:29:32;;;;;;;13.72;13.10;;;;;;;23.49;100.00;101711.97;1972045;73;31478;-76
2021/08/11 15:34:57;;;;;;;13.15;12.55;;;;;;;23.28;100.00;101711.18;1971863;73;31003;-75
2021/08/11 15:40:42;;;;;;;12.70;12.18;;;;;;;23.41;100.00;101705.78;2015937;71;30905;-74
2021/08/11 15:46:26;;;;;;;12.70;12.10;;;;;;;23.62;100.00;101712.01;2002259;71;30833;-71
2021/08/11 15:51:51;;;;;;;13.03;12.40;;;;;;;23.22;100.00;101710.34;1971853;72;30965;-73
2021/08/11 15:57:35;;;;;;;12.55;11.95;;;;;;;23.30;100.00;101703.17;2016472;71;30929;-75
2021/08/11 16:03:20;;;;;;;12.70;12.20;;;;;;;23.20;100.00;101720.61;2016200;71;31504;-71
2021/08/11 16:08:51;;;;;;;12.82;12.23;;;;;;;23.19;100.00;101712.48;1971815;73;31095;-69
2021/08/11 16:14:22;;;;;;;12.10;11.60;;;;;;;23.06;100.00;101711.61;1972076;72;30948;-72
2021/08/11 16:19:46;;;;;;;11.60;11.05;;;;;;;23.02;100.00;101719.13;1971996;73;30956;-72
2021/08/11 16:25:16;;;;;;;10.40;9.90;;;;;;;23.02;100.00;101712.03;1971864;72;30945;-70
2021/08/11 16:30:47;;;;;;;11.57;11.03;;;;;;;22.88;100.00;101705.86;1972046;73;30935;-72
2021/08/11 16:36:12;;;;;;;11.65;11.15;;;;;;;22.95;100.00;101714.62;1971832;73;30968;-71
2021/08/11 16:41:37;;;;;;;12.00;11.30;;;;;;;22.77;100.00;101701.78;1971809;73;31011;-72
2021/08/11 16:47:08;;;;;;;11.95;11.35;;;;;;;22.91;100.00;101707.41;1971850;73;30950;-72
2021/08/11 16:52:33;;;;;;;11.93;11.28;;;;;;;22.60;100.00;101689.98;1972048;73;30972;-72
2021/08/11 16:58:18;;;;;;;12.07;11.50;;;;;;;22.73;100.00;101708.73;2016022;71;30931;-73
2021/08/11 17:03:43;;;;;;;12.63;12.03;;;;;;;22.73;100.00;101693.16;1975445;72;30928;-70
2021/08/11 17:09:07;;;;;;;14.47;13.80;;;;;;;22.60;100.00;101696.48;1972013;73;31519;-71
2021/08/11 17:14:35;;;;;;;14.15;13.35;;;;;;;22.60;100.00;101707.81;1971754;73;31042;-76
2021/08/11 17:20:00;;;;;;;11.53;11.03;;;;;;;22.43;100.00;101705.12;1971785;73;31067;-76
2021/08/11 17:25:25;;;;;;;11.97;11.38;;;;;;;22.45;100.00;101718.94;1971790;73;31115;-70
2021/08/11 17:30:51;;;;;;;12.03;11.43;;;;;;;22.27;100.00;101712.58;1971728;73;31097;-70
2021/08/11 17:36:17;;;;;;;12.60;11.90;;;;;;;22.27;100.00;101699.83;1971788;73;31218;-71
2021/08/11 17:41:45;;;;;;;11.12;10.65;;;;;;;22.26;100.00;101709.48;1971975;73;31030;-77
2021/08/11 17:47:13;;;;;;;11.28;10.78;;;;;;;22.08;100.00;101712.19;1971839;73;31034;-73
2021/08/11 17:52:38;;;;;;;12.10;11.37;;;;;;;21.95;100.00;101723.19;1971990;73;30969;-71
2021/08/11 17:58:04;;;;;;;11.90;11.38;;;;;;;21.85;100.00;101737.67;1972083;73;31531;-72
2021/08/11 18:03:29;;;;;;;11.50;10.90;;;;;;;21.80;100.00;101737.28;1972000;73;31438;-72
2021/08/11 18:08:56;;;;;;;11.08;10.58;;;;;;;21.74;100.00;101740.88;1971748;73;30952;-75
2021/08/11 18:14:20;;;;;;;11.47;10.97;;;;;;;21.54;100.00;101726.07;1971860;73;31092;-70
2021/08/11 18:19:45;;;;;;;11.97;11.30;;;;;;;21.43;100.00;101726.20;1971711;73;31060;-74
2021/08/11 18:25:11;;;;;;;11.73;11.10;;;;;;;21.33;100.00;101727.39;1971729;73;31033;-70
2021/08/11 18:30:36;;;;;;;11.80;11.20;;;;;;;21.11;100.00;101719.67;1971937;73;31506;-74
2021/08/11 18:36:00;;;;;;;12.07;11.55;;;;;;;21.09;100.00;101714.38;1971904;73;31442;-73
2021/08/11 18:41:25;;;;;;;13.10;12.20;;;;;;;20.81;100.00;101725.77;1971971;73;31587;-69
2021/08/11 18:46:50;;;;;;;13.17;12.47;;;;;;;20.71;100.00;101742.45;1971873;73;31490;-70
2021/08/11 18:52:15;;;;;;;12.40;11.80;;;;;;;20.64;100.00;101728.59;1971894;73;33474;-70
2021/08/11 18:57:59;;;;;;;12.20;11.60;;;;;;;20.63;100.00;101732.58;2016219;71;31509;-70
2021/08/11 19:03:25;;;;;;;11.67;11.17;;;;;;;20.50;100.00;101742.86;1971694;73;31010;-75
2021/08/11 19:08:55;;;;;;;11.83;11.23;;;;;;;20.35;100.00;101740.53;1971770;73;31092;-74
2021/08/11 19:14:20;;;;;;;12.43;11.83;;;;;;;20.31;100.00;101740.94;1971942;73;31520;-74
2021/08/11 19:19:44;;;;;;;12.57;11.87;;;;;;;20.21;100.00;101747.69;1971815;73;30944;-74
2021/08/11 19:25:13;;;;;;;12.47;11.87;;;;;;;20.06;100.00;101750.98;1971927;73;33507;-71
2021/08/11 19:30:38;;;;;;;13.30;12.67;;;;;;;19.95;100.00;101749.60;1971733;73;30951;-75
2021/08/11 19:36:02;;;;;;;11.97;11.37;;;;;;;20.42;100.00;101758.63;1971753;73;31042;-74
2021/08/11 19:41:27;;;;;;;12.40;11.70;;;;;;;20.25;100.00;101763.38;1971945;72;31471;-74
2021/08/11 19:46:52;;;;;;;12.60;11.80;;;;;;;19.80;100.00;101772.61;1971722;73;30990;-75
2021/08/11 20:05:30;;;;;;;14.57;13.77;;;;;;;19.52;100.00;101790.28;2061013;69;30621;-72
2021/08/11 20:08:00;;;;;;;13.50;12.77;;;;;;;19.47;100.00;101801.69;1950509;73;26314;-74
2021/08/11 20:10:30;;;;;;;13.63;13.03;;;;;;;19.43;100.00;101803.48;2030421;71;24105;-73
2021/08/11 20:13:04;;;;;;;15.00;14.10;;;;;;;19.35;100.00;101800.00;2030522;71;26703;-73
2021/08/11 20:15:34;;;;;;;14.57;13.87;;;;;;;19.25;100.00;101801.70;2030570;70;24108;-73
2021/08/11 20:18:04;;;;;;;14.30;13.60;;;;;;;19.27;100.00;101798.80;2030383;71;24101;-72
2021/08/11 20:20:34;;;;;;;14.97;14.07;;;;;;;19.22;100.00;101805.12;2028507;71;24182;-74
2021/08/11 20:25:59;;;;;;;15.70;14.80;;;;;;;19.18;100.00;101805.52;1971730;73;31089;-73
2021/08/11 20:31:24;;;;;;;17.00;16.20;;;;;;;19.09;100.00;101802.63;1971866;73;31073;-73
2021/08/11 20:36:49;;;;;;;19.27;18.27;;;;;;;18.94;100.00;101796.81;1971889;72;31545;-74
2021/08/11 20:42:13;;;;;;;21.43;20.27;;;;;;;18.88;100.00;101801.47;1971887;73;31457;-73
2021/08/11 20:47:57;;;;;;;23.43;22.13;;;;;;;18.67;100.00;101798.30;2016050;71;30881;-73
2021/08/11 20:53:22;;;;;;;23.60;22.30;;;;;;;18.56;100.00;101807.56;1971682;73;30972;-73
2021/08/11 20:58:46;;;;;;;27.83;26.13;;;;;;;18.40;100.00;101806.78;1971752;73;30971;-74
2021/08/11 21:04:10;;;;;;;29.63;27.93;;;;;;;18.41;100.00;101807.86;1972052;73;31171;-76
2021/08/11 21:09:36;;;;;;;30.37;28.77;;;;;;;18.47;100.00;101813.64;1971800;73;30987;-72
2021/08/11 21:15:03;;;;;;;31.47;29.77;;;;;;;18.46;100.00;101811.97;1971722;72;30934;-73
2021/08/11 21:20:28;;;;;;;34.33;32.37;;;;;;;18.44;100.00;101803.00;1971703;71;31486;-73
2021/08/11 21:26:14;;;;;;;37.03;34.90;;;;;;;18.32;100.00;101787.23;2015935;71;30995;-74
2021/08/11 21:31:39;;;;;;;39.10;36.90;;;;;;;18.31;100.00;101798.82;1972029;73;30996;-72
2021/08/11 21:37:04;;;;;;;40.97;38.57;;;;;;;18.34;100.00;101798.19;1971617;72;30957;-72
2021/08/11 21:42:28;;;;;;;43.53;41.03;;;;;;;18.30;100.00;101799.39;1971760;73;31095;-75
2021/08/11 21:47:53;;;;;;;45.37;42.67;;;;;;;18.14;100.00;101796.65;1971800;73;31138;-72
2021/08/11 21:53:19;;;;;;;45.53;42.73;;;;;;;18.21;100.00;101798.45;1972004;73;31495;-75
2021/08/11 21:59:30;;;;;;;43.27;40.57;;;;;;;18.15;100.00;101799.13;1971676;73;31031;-75
2021/08/11 22:05:29;;;;;;;43.10;40.30;;;;;;;18.01;100.00;101794.67;1971818;73;31126;-74
2021/08/11 22:10:54;;;;;;;43.97;41.13;;;;;;;18.16;100.00;101785.91;1971838;72;31014;-73
2021/08/11 22:16:38;;;;;;;45.30;42.43;;;;;;;18.06;100.00;101794.54;2016000;71;31391;-71
2021/08/11 22:22:10;;;;;;;43.30;40.70;;;;;;;18.11;100.00;101795.28;1963149;71;31528;-73
2021/08/11 22:27:33;;;;;;;46.10;43.30;;;;;;;17.96;100.00;101800.39;1971693;73;31079;-73
2021/08/11 22:32:58;;;;;;;45.43;42.50;;;;;;;17.99;100.00;101799.19;1971722;73;31087;-71
2021/08/11 22:38:23;;;;;;;45.73;42.93;;;;;;;17.90;100.00;101794.59;1971731;73;30973;-70
2021/08/11 22:44:08;;;;;;;46.30;43.23;;;;;;;17.87;100.00;101810.69;2015930;71;31068;-73
2021/08/11 22:49:32;;;;;;;46.20;42.93;;;;;;;17.95;100.00;101812.20;1971962;73;31463;-71
2021/08/11 22:55:01;;;;;;;45.27;42.47;;;;;;;17.80;100.00;101818.11;1971918;73;32909;-73
2021/08/11 23:13:47;;;;;;;42.87;39.93;;;;;;;17.76;100.00;101817.06;2061083;69;33199;-71
2021/08/11 23:16:22;;;;;;;43.87;40.97;;;;;;;17.74;100.00;101829.20;1950433;73;26678;-71
2021/08/11 23:21:51;;;;;;;44.03;41.03;;;;;;;17.61;100.00;101828.60;1955208;73;31021;-70
2021/08/11 23:27:18;;;;;;;46.33;43.33;;;;;;;17.68;100.00;101829.02;1971909;73;33495;-72
2021/08/11 23:32:45;;;;;;;44.07;41.20;;;;;;;17.60;100.00;101839.00;1971818;72;30978;-71
2021/08/11 23:38:16;;;;;;;47.03;43.77;;;;;;;17.78;100.00;101844.30;1971739;73;33554;-73
2021/08/11 23:43:43;;;;;;;46.67;43.47;;;;;;;17.77;100.00;101832.79;1971926;73;31476;-71
2021/08/11 23:49:11;;;;;;;47.63;44.33;;;;;;;17.82;100.00;101835.52;1971668;73;31100;-74